Time;durP1;ratioP1;P1;durP2;ratioP2;P2;SDS_P1;SDS_P2;PMS_P1;PMS_P2;Temp;Humidity;BMP_temperature;BMP_pressure;BME280_temperature;BME280_humidity;BME280_pressure;Samples;Min_cycle;Max_cycle;Signal;HPM_P1;HPM_P2
2021/07/07 00:02:23;;;;;;;;;2.00;2.00;;;;;20.97;48.18;100803.84;4885895;29;45340;-73
2021/07/07 00:04:50;;;;;;;;;1.00;1.00;;;;;20.99;48.43;100801.88;4885738;29;45302;-73
2021/07/07 00:07:16;;;;;;;;;2.75;2.75;;;;;20.94;48.27;100798.66;4885677;29;45518;-73
2021/07/07 00:09:41;;;;;;;;;2.00;2.00;;;;;20.95;47.92;100809.38;4897412;29;45398;-73
2021/07/07 00:12:07;;;;;;;;;2.00;2.00;;;;;20.97;48.25;100807.41;4885630;29;45294;-73
2021/07/07 00:14:32;;;;;;;;;1.50;1.50;;;;;20.88;48.20;100802.66;4885117;29;45885;-73
2021/07/07 00:16:58;;;;;;;;;3.25;1.50;;;;;20.88;48.29;100806.25;4885659;29;45249;-74
2021/07/07 00:19:23;;;;;;;;;2.25;2.25;;;;;20.82;48.41;100800.44;4887237;29;45313;-73
2021/07/07 00:21:48;;;;;;;;;2.50;1.50;;;;;20.79;48.66;100806.94;4885940;29;45330;-74
2021/07/07 00:24:14;;;;;;;;;2.25;2.00;;;;;20.83;48.67;100824.72;4885277;29;45367;-73
2021/07/07 00:26:39;;;;;;;;;2.00;1.25;;;;;20.76;48.78;100811.72;4891334;29;45414;-73
2021/07/07 00:29:05;;;;;;;;;1.25;1.25;;;;;20.75;49.19;100820.84;4885399;29;45471;-73
2021/07/07 00:31:30;;;;;;;;;2.25;1.75;;;;;20.76;48.99;100826.16;4885677;29;45280;-74
2021/07/07 00:33:55;;;;;;;;;4.25;3.25;;;;;20.70;49.40;100810.34;4884854;29;45165;-73
2021/07/07 00:36:21;;;;;;;;;2.50;2.00;;;;;20.72;48.98;100830.94;4885451;29;45245;-73
2021/07/07 00:38:46;;;;;;;;;1.00;1.00;;;;;20.71;49.40;100829.22;4885157;29;45297;-73
2021/07/07 00:41:11;;;;;;;;;4.50;3.75;;;;;20.70;49.49;100818.47;4894795;28;45404;-73
2021/07/07 00:43:37;;;;;;;;;3.25;2.00;;;;;20.68;49.47;100824.03;4888342;28;45450;-73
2021/07/07 00:46:02;;;;;;;;;2.50;1.50;;;;;20.60;49.34;100811.94;4888224;29;45273;-73
2021/07/07 00:48:28;;;;;;;;;4.25;2.00;;;;;20.62;49.22;100818.16;4885060;29;45329;-73
2021/07/07 00:50:56;;;;;;;;;2.00;2.00;;;;;20.62;49.32;100829.00;4887318;29;45273;-73
2021/07/07 00:53:21;;;;;;;;;2.00;2.00;;;;;20.57;49.31;100815.75;4884818;29;46563;-73
2021/07/07 00:55:47;;;;;;;;;2.00;2.00;;;;;20.53;49.72;100822.38;4893006;29;45293;-73
2021/07/07 00:58:13;;;;;;;;;2.00;2.00;;;;;20.54;49.70;100818.69;4889048;29;45253;-73
2021/07/07 01:00:38;;;;;;;;;3.50;3.50;;;;;20.49;49.89;100813.59;4892794;29;45427;-73
2021/07/07 01:03:04;;;;;;;;;2.00;2.00;;;;;20.53;49.93;100820.56;4884524;29;46167;-73
2021/07/07 01:05:30;;;;;;;;;2.50;2.00;;;;;20.52;50.14;100815.25;4885016;29;45309;-73
2021/07/07 01:07:56;;;;;;;;;2.00;2.00;;;;;20.54;49.55;100824.97;4888250;29;45504;-73
2021/07/07 01:10:21;;;;;;;;;4.00;3.25;;;;;20.54;49.92;100826.84;4902018;29;45426;-73
2021/07/07 01:12:47;;;;;;;;;3.00;3.00;;;;;20.45;50.18;100808.53;4887464;29;46249;-73
2021/07/07 01:15:15;;;;;;;;;4.00;2.00;;;;;20.50;49.83;100825.34;4884604;29;45316;-74
2021/07/07 01:17:41;;;;;;;;;2.75;1.75;;;;;20.49;49.97;100821.72;4884741;29;45284;-73
2021/07/07 01:20:08;;;;;;;;;3.25;3.00;;;;;20.47;50.25;100817.41;4890496;29;45416;-73
2021/07/07 01:22:34;;;;;;;;;2.75;2.50;;;;;20.48;50.19;100830.88;4896085;29;45854;-73
2021/07/07 01:24:59;;;;;;;;;2.00;2.00;;;;;20.47;50.16;100821.00;4889729;29;45483;-73
2021/07/07 01:27:26;;;;;;;;;1.00;1.00;;;;;20.45;50.34;100827.53;4895277;29;45367;-73
2021/07/07 01:29:54;;;;;;;;;3.00;2.00;;;;;20.40;50.25;100810.69;4888237;29;45310;-73
2021/07/07 01:32:20;;;;;;;;;2.75;2.00;;;;;20.41;50.21;100824.13;4885454;29;45341;-73
2021/07/07 01:34:46;;;;;;;;;3.75;2.00;;;;;20.37;50.33;100825.34;4884442;29;45339;-73
2021/07/07 01:37:11;;;;;;;;;2.00;2.00;;;;;20.36;50.73;100819.06;4885605;29;45540;-73
2021/07/07 01:39:37;;;;;;;;;1.75;1.75;;;;;20.35;50.35;100820.03;4887847;29;45323;-73
2021/07/07 01:42:03;;;;;;;;;3.50;2.25;;;;;20.34;50.44;100823.72;4893327;28;45622;-73
2021/07/07 01:44:28;;;;;;;;;4.75;3.00;;;;;20.33;50.69;100826.53;4885775;29;45426;-73
2021/07/07 01:46:54;;;;;;;;;2.00;2.00;;;;;20.33;50.69;100823.81;4885381;29;45385;-73
2021/07/07 01:49:19;;;;;;;;;3.00;2.50;;;;;20.27;50.56;100818.88;4885117;29;45313;-73
2021/07/07 01:51:44;;;;;;;;;1.25;1.25;;;;;20.30;50.41;100835.78;4893335;29;46973;-73
2021/07/07 01:54:10;;;;;;;;;2.00;2.00;;;;;20.25;50.89;100813.56;4885448;29;45313;-74
2021/07/07 01:56:35;;;;;;;;;4.00;2.00;;;;;20.29;50.80;100831.31;4887706;29;45485;-73
2021/07/07 01:59:01;;;;;;;;;6.00;2.00;;;;;20.25;50.83;100824.41;4887468;29;45338;-73
2021/07/07 02:01:26;;;;;;;;;2.75;2.75;;;;;20.27;50.92;100835.97;4895107;29;45220;-73
2021/07/07 02:03:51;;;;;;;;;3.75;2.75;;;;;20.27;51.09;100833.28;4887336;29;45310;-73
2021/07/07 02:06:17;;;;;;;;;3.25;3.00;;;;;20.20;50.92;100822.97;4887499;29;45448;-74
2021/07/07 02:08:42;;;;;;;;;4.00;3.00;;;;;20.21;51.12;100827.44;4896324;29;45489;-73
2021/07/07 02:11:08;;;;;;;;;4.00;2.00;;;;;20.22;51.40;100823.75;4891159;29;45308;-73
2021/07/07 02:13:33;;;;;;;;;1.75;1.75;;;;;20.18;50.90;100818.53;4895250;29;45278;-73
2021/07/07 02:15:58;;;;;;;;;4.25;2.00;;;;;20.15;51.41;100815.19;4887352;29;45301;-73
2021/07/07 02:18:24;;;;;;;;;4.00;3.00;;;;;20.18;51.48;100825.81;4887495;29;45219;-73
2021/07/07 02:20:50;;;;;;;;;3.00;2.50;;;;;20.00;51.45;100806.31;4889618;29;46142;-73
2021/07/07 02:23:16;;;;;;;;;2.25;1.75;;;;;20.06;51.53;100819.41;4896370;29;45554;-73
2021/07/07 02:25:44;;;;;;;;;2.50;2.00;;;;;20.10;51.76;100825.50;4892689;29;45358;-73
2021/07/07 02:28:10;;;;;;;;;4.00;4.00;;;;;20.11;51.42;100830.81;4895932;29;45329;-73
2021/07/07 02:30:37;;;;;;;;;3.00;2.25;;;;;20.08;51.74;100822.91;4893413;29;46180;-73
2021/07/07 02:33:08;;;;;;;;;2.00;2.00;;;;;20.05;51.77;100827.66;4897098;29;45646;-73
2021/07/07 02:35:35;;;;;;;;;4.50;3.00;;;;;20.05;51.81;100827.66;4901398;29;45346;-73
2021/07/07 02:38:03;;;;;;;;;3.00;3.00;;;;;20.04;51.86;100823.22;4887186;29;45321;-73
2021/07/07 02:40:31;;;;;;;;;3.75;2.25;;;;;20.01;51.88;100823.44;4890183;29;46549;-74
2021/07/07 02:42:56;;;;;;;;;3.00;1.75;;;;;19.96;51.85;100813.78;4893268;29;45638;-73
2021/07/07 02:45:23;;;;;;;;;2.00;2.00;;;;;19.99;52.14;100828.94;4889547;29;45376;-73
2021/07/07 02:47:49;;;;;;;;;2.50;2.50;;;;;19.99;52.28;100837.09;4886887;29;45473;-74
2021/07/07 02:50:17;;;;;;;;;2.50;2.50;;;;;19.95;52.13;100832.88;4890859;29;46460;-73
2021/07/07 02:52:45;;;;;;;;;6.25;3.00;;;;;19.93;52.46;100832.97;4886802;29;45545;-73
2021/07/07 02:55:10;;;;;;;;;4.50;3.25;;;;;19.91;52.66;100834.94;4887002;29;45543;-73
2021/07/07 03:00:22;;;;;;;;;2.00;2.00;;;;;19.91;52.66;100836.75;4888219;29;45889;-73
2021/07/07 03:02:47;;;;;;;;;1.25;1.25;;;;;19.84;52.71;100825.47;4890894;29;45491;-73
2021/07/07 03:05:13;;;;;;;;;2.00;2.00;;;;;19.86;52.76;100841.63;4893134;29;45450;-73
2021/07/07 03:07:38;;;;;;;;;4.50;2.00;;;;;19.84;52.98;100841.72;4893977;29;45388;-73
2021/07/07 03:10:06;;;;;;;;;2.50;2.50;;;;;19.82;52.74;100846.41;4905437;29;46376;-73
2021/07/07 03:12:32;;;;;;;;;3.75;3.25;;;;;19.83;52.99;100845.44;4890987;29;45226;-73
2021/07/07 03:14:57;;;;;;;;;2.50;1.75;;;;;19.76;53.30;100835.97;4896579;29;45154;-73
2021/07/07 03:17:22;;;;;;;;;2.75;2.75;;;;;19.76;53.09;100835.97;4892057;29;45229;-73
2021/07/07 03:19:48;;;;;;;;;2.75;2.25;;;;;19.78;53.14;100850.31;4892888;29;45320;-73
2021/07/07 03:22:13;;;;;;;;;3.00;3.00;;;;;19.69;53.27;100846.34;4897629;29;46237;-73
2021/07/07 03:24:38;;;;;;;;;2.50;2.50;;;;;19.70;53.32;100847.22;4898496;29;45446;-73
2021/07/07 03:27:04;;;;;;;;;2.00;2.00;;;;;19.74;53.54;100851.44;4900254;29;45586;-74
2021/07/07 03:29:29;;;;;;;;;1.75;1.75;;;;;19.73;53.54;100852.41;4886091;29;46197;-73
2021/07/07 03:31:54;;;;;;;;;3.75;2.25;;;;;19.68;53.36;100852.75;4887173;29;45368;-73
2021/07/07 03:34:20;;;;;;;;;6.50;3.75;;;;;19.68;53.79;100854.56;4897281;29;45259;-73
2021/07/07 03:36:45;;;;;;;;;2.75;2.75;;;;;19.68;53.82;100859.97;4886037;29;45152;-73
2021/07/07 03:39:10;;;;;;;;;2.50;2.50;;;;;19.61;53.67;100848.69;4891679;29;45231;-73
2021/07/07 03:41:35;;;;;;;;;3.50;2.75;;;;;19.60;54.03;100846.97;4898411;28;48146;-73
2021/07/07 03:44:01;;;;;;;;;3.00;3.00;;;;;19.65;53.77;100860.22;4895202;29;45377;-73
2021/07/07 03:46:26;;;;;;;;;4.00;3.00;;;;;19.64;53.93;100862.03;4901190;29;45339;-73
2021/07/07 03:48:51;;;;;;;;;4.00;1.50;;;;;19.62;54.11;100864.00;4886021;29;45390;-73
2021/07/07 03:51:17;;;;;;;;;3.00;3.00;;;;;19.60;54.34;100864.09;4885935;29;45499;-73
2021/07/07 03:53:42;;;;;;;;;2.00;2.00;;;;;19.58;54.31;100859.75;4894413;29;45520;-73
2021/07/07 03:56:07;;;;;;;;;7.25;5.25;;;;;19.52;54.11;100850.19;4890356;29;45369;-73
2021/07/07 03:58:33;;;;;;;;;3.00;3.00;;;;;19.46;54.18;100863.28;4885795;29;45456;-73
2021/07/07 04:00:58;;;;;;;;;10.75;8.75;;;;;19.46;54.28;100866.84;4885716;29;45533;-74
2021/07/07 04:03:23;;;;;;;;;3.75;3.50;;;;;19.43;54.71;100864.38;4889880;29;45325;-73
2021/07/07 04:05:48;;;;;;;;;3.00;2.75;;;;;19.42;54.57;100865.34;4887292;29;48943;-73
2021/07/07 04:08:14;;;;;;;;;4.75;3.00;;;;;19.38;54.69;100853.84;4902279;29;45468;-73
2021/07/07 04:10:39;;;;;;;;;2.75;2.00;;;;;19.36;54.95;100855.81;4900599;29;45497;-73
2021/07/07 04:13:04;;;;;;;;;4.25;3.50;;;;;19.39;55.18;100865.53;4889048;29;45500;-73
2021/07/07 04:15:30;;;;;;;;;2.50;2.50;;;;;19.38;54.70;100872.81;4890780;29;45528;-73
2021/07/07 04:17:56;;;;;;;;;4.50;3.00;;;;;19.39;55.08;100876.38;4892078;29;45600;-73
2021/07/07 04:20:21;;;;;;;;;3.00;3.00;;;;;19.37;55.23;100875.63;4896654;29;45190;-73
2021/07/07 04:22:48;;;;;;;;;5.50;3.25;;;;;19.39;54.91;100888.06;4885986;29;45249;-73
2021/07/07 04:25:14;;;;;;;;;2.00;2.00;;;;;19.43;55.17;100894.16;4891403;29;45336;-73
2021/07/07 04:27:40;;;;;;;;;4.25;3.00;;;;;19.41;55.17;100887.94;4887490;29;46370;-73
2021/07/07 04:30:11;;;;;;;;;3.00;2.25;;;;;19.39;55.36;100895.31;4891509;29;45429;-73
2021/07/07 04:32:37;;;;;;;;;5.00;4.75;;;;;19.40;55.26;100900.63;4885197;29;45241;-73
2021/07/07 04:35:04;;;;;;;;;4.00;4.00;;;;;19.34;55.19;100902.88;4885151;29;45420;-73
2021/07/07 04:37:30;;;;;;;;;6.00;5.00;;;;;19.34;55.34;100908.28;4885614;29;45508;-74
2021/07/07 04:39:56;;;;;;;;;2.50;2.50;;;;;19.33;55.49;100911.97;4891291;29;45306;-73
2021/07/07 04:42:22;;;;;;;;;5.00;5.00;;;;;19.31;55.71;100909.38;4895871;28;45282;-73
2021/07/07 04:44:47;;;;;;;;;4.75;4.00;;;;;19.32;55.85;100911.09;4887692;29;45453;-73
2021/07/07 04:47:13;;;;;;;;;6.00;4.00;;;;;19.34;55.73;100916.41;4884968;29;48339;-73
2021/07/07 04:49:38;;;;;;;;;3.75;3.25;;;;;19.35;56.18;100915.47;4887453;29;45245;-73
2021/07/07 04:52:04;;;;;;;;;2.25;2.25;;;;;19.32;55.81;100913.81;4885235;29;45389;-73
2021/07/07 04:54:32;;;;;;;;;4.00;3.00;;;;;19.33;55.78;100926.38;4885141;29;45288;-74
2021/07/07 04:56:57;;;;;;;;;5.25;5.00;;;;;19.30;55.87;100921.16;4884972;29;46913;-73
2021/07/07 04:59:22;;;;;;;;;5.25;4.50;;;;;19.34;56.08;100927.25;4896967;29;45485;-73
2021/07/07 05:01:48;;;;;;;;;4.75;3.50;;;;;19.34;56.34;100930.81;4885210;29;45313;-73
2021/07/07 05:04:13;;;;;;;;;3.00;3.00;;;;;19.34;56.04;100933.50;4884721;29;45293;-73
2021/07/07 05:06:39;;;;;;;;;4.25;4.25;;;;;19.32;56.33;100937.31;4884959;29;46517;-73
2021/07/07 05:09:04;;;;;;;;;4.00;3.25;;;;;19.32;56.20;100938.16;4888099;29;45256;-73
2021/07/07 05:11:29;;;;;;;;;3.25;3.00;;;;;19.28;56.17;100924.94;4893607;29;45452;-73
2021/07/07 05:13:54;;;;;;;;;9.00;8.50;;;;;19.32;56.47;100927.34;4892201;29;45323;-73
2021/07/07 05:16:20;;;;;;;;;3.75;3.75;;;;;19.37;56.53;100937.88;4890889;29;46088;-73
2021/07/07 05:18:47;;;;;;;;;4.50;3.50;;;;;19.35;56.52;100939.81;4892876;29;45455;-73
2021/07/07 05:21:13;;;;;;;;;6.75;3.75;;;;;19.33;56.78;100955.25;4896086;29;45530;-73
2021/07/07 05:23:39;;;;;;;;;3.25;3.00;;;;;19.31;56.78;100949.97;4884534;29;45310;-74
2021/07/07 05:26:04;;;;;;;;;5.00;4.00;;;;;19.33;56.54;100950.75;4890385;29;46359;-73
2021/07/07 05:28:30;;;;;;;;;4.00;3.00;;;;;19.31;56.84;100946.38;4883846;29;45347;-73
2021/07/07 05:30:58;;;;;;;;;6.75;5.00;;;;;19.27;56.70;100948.44;4892379;29;45601;-76
2021/07/07 05:33:23;;;;;;;;;4.00;4.00;;;;;19.27;56.77;100944.88;4894510;29;45465;-76
2021/07/07 05:35:49;;;;;;;;;3.75;3.25;;;;;19.18;56.64;100936.38;4885675;29;45940;-80
2021/07/07 05:38:14;;;;;;;;;5.75;4.00;;;;;19.34;56.83;100955.16;4884420;29;45239;-79
2021/07/07 05:40:39;;;;;;;;;4.75;3.50;;;;;19.35;56.90;100945.22;4893038;29;45401;-80
2021/07/07 05:43:05;;;;;;;;;5.00;4.25;;;;;19.33;56.98;100953.44;4891766;28;45543;-80
2021/07/07 05:45:30;;;;;;;;;4.25;3.50;;;;;19.31;56.96;100951.78;4893717;29;45142;-79
2021/07/07 05:47:57;;;;;;;;;4.00;4.00;;;;;19.35;56.76;100961.47;4889316;29;45197;-78
2021/07/07 05:50:24;;;;;;;;;6.75;4.50;;;;;19.40;57.34;100960.19;4897579;28;45380;-78
2021/07/07 05:52:49;;;;;;;;;7.50;5.00;;;;;19.32;56.89;100942.72;4903223;29;45566;-81
2021/07/07 05:55:15;;;;;;;;;4.25;4.00;;;;;19.41;57.06;100947.50;4893777;29;45491;-81
2021/07/07 05:57:41;;;;;;;;;3.00;3.00;;;;;19.41;57.32;100945.69;4891340;29;46718;-81
2021/07/07 06:00:21;;;;;;;;;4.75;3.25;;;;;19.30;56.87;100941.97;4883844;29;45296;-79
2021/07/07 06:02:48;;;;;;;;;3.25;3.25;;;;;19.37;57.27;100956.81;4883835;29;45264;-78
2021/07/07 06:05:14;;;;;;;;;6.50;5.25;;;;;19.46;57.25;100969.72;4883943;29;47599;-79
2021/07/07 06:07:40;;;;;;;;;2.75;2.75;;;;;19.16;57.41;100935.63;4879959;29;45681;-78
2021/07/07 06:10:11;;;;;;;;;4.75;4.75;;;;;19.02;57.36;100904.03;4902922;29;45304;-81
2021/07/07 06:12:37;;;;;;;;;4.00;4.00;;;;;18.99;57.55;100897.97;4870876;29;45449;-81
2021/07/07 06:15:04;;;;;;;;;6.75;5.25;;;;;19.06;57.36;100899.28;4883733;29;45435;-80
2021/07/07 06:17:32;;;;;;;;;4.00;4.00;;;;;19.24;57.56;100943.22;4895907;29;45534;-80
2021/07/07 06:20:07;;;;;;;;;6.25;4.50;;;;;19.52;57.62;100976.59;4888003;29;45213;-79
2021/07/07 06:22:45;;;;;;;;;5.50;5.00;;;;;19.17;57.61;100921.09;4895001;29;45332;-80
2021/07/07 06:25:15;;;;;;;;;4.50;4.00;;;;;19.43;56.97;100959.13;4897377;29;45313;-79
2021/07/07 06:27:41;;;;;;;;;3.25;3.25;;;;;19.29;57.50;100924.84;4897472;29;45359;-80
2021/07/07 06:30:09;;;;;;;;;6.75;4.75;;;;;19.32;56.98;100932.75;4883179;29;45621;-78
2021/07/07 06:32:34;;;;;;;;;5.50;4.25;;;;;19.44;57.16;100947.31;4888375;29;45884;-79
2021/07/07 06:35:02;;;;;;;;;5.50;4.50;;;;;19.40;57.23;100937.66;4881717;29;46313;-79
2021/07/07 06:37:30;;;;;;;;;7.50;6.00;;;;;19.56;57.32;100961.88;4866548;29;45384;-77
2021/07/07 06:39:56;;;;;;;;;6.75;5.25;;;;;19.60;57.27;100966.13;4883148;29;45544;-78
2021/07/07 06:42:21;;;;;;;;;4.00;4.00;;;;;19.48;57.11;100959.69;4874521;29;45915;-78
2021/07/07 06:44:47;;;;;;;;;6.75;5.75;;;;;19.32;57.06;100926.47;4887519;29;45529;-77
2021/07/07 06:47:13;;;;;;;;;3.00;3.00;;;;;19.72;57.45;100988.81;4886767;29;45276;-77
2021/07/07 06:49:38;;;;;;;;;4.50;4.50;;;;;19.44;57.17;100940.06;4885654;29;45360;-77
2021/07/07 06:52:04;;;;;;;;;7.00;5.25;;;;;19.50;56.95;100946.06;4885489;29;45501;-73
2021/07/07 06:54:30;;;;;;;;;5.00;5.00;;;;;19.55;56.71;100958.31;4889972;29;45437;-81
2021/07/07 06:56:55;;;;;;;;;5.50;5.25;;;;;19.54;57.06;100951.13;4895202;29;45376;-80
2021/07/07 06:59:28;;;;;;;;;6.75;5.75;;;;;19.60;57.34;100966.13;4867349;29;45746;-80
2021/07/07 07:01:53;;;;;;;;;5.50;5.50;;;;;19.60;57.03;100966.13;4901254;29;46597;-81
2021/07/07 07:04:20;;;;;;;;;8.00;6.00;;;;;19.77;56.90;101005.66;4881447;29;46325;-81
2021/07/07 07:06:46;;;;;;;;;6.00;5.00;;;;;19.37;56.83;100925.19;4885111;29;45605;-80
2021/07/07 07:09:12;;;;;;;;;5.50;5.50;;;;;19.83;56.54;101007.94;4898610;29;45555;-80
2021/07/07 07:11:39;;;;;;;;;6.75;5.00;;;;;19.60;56.81;100968.84;4898080;29;45337;-81
2021/07/07 07:14:06;;;;;;;;;4.00;4.00;;;;;19.82;56.77;101008.91;4868741;29;47383;-81
2021/07/07 07:16:31;;;;;;;;;8.00;7.00;;;;;19.77;56.74;100995.66;4886057;29;45630;-81
2021/07/07 07:18:56;;;;;;;;;4.75;4.00;;;;;19.76;56.83;100995.78;4892420;29;45526;-72
2021/07/07 07:21:22;;;;;;;;;6.75;6.75;;;;;19.67;57.15;100985.53;4879317;29;45524;-78
2021/07/07 07:23:47;;;;;;;;;7.00;5.00;;;;;19.62;56.58;100972.28;4867798;29;47942;-73
2021/07/07 07:26:12;;;;;;;;;7.75;6.00;;;;;19.71;56.76;100985.25;4890796;29;45493;-67
2021/07/07 07:28:38;;;;;;;;;4.25;4.25;;;;;19.73;56.48;100991.41;4872383;29;45443;-66
2021/07/07 07:31:04;;;;;;;;;5.50;5.50;;;;;20.01;56.77;101027.50;4885159;29;45526;-66
2021/07/07 07:33:30;;;;;;;;;7.75;4.75;;;;;20.03;56.87;101038.22;4883742;29;46942;-68
2021/07/07 07:35:55;;;;;;;;;7.50;5.00;;;;;19.92;56.59;101020.00;4885275;29;45462;-67
2021/07/07 07:38:39;;;;;;;;;6.00;4.50;;;;;19.94;56.49;101020.75;4885389;29;45744;-68
2021/07/07 07:41:04;;;;;;;;;5.00;4.25;;;;;19.95;56.64;101023.38;4888809;28;46210;-68
2021/07/07 07:43:30;;;;;;;;;5.75;5.75;;;;;20.06;55.97;101032.59;4889100;28;45987;-68
2021/07/07 07:45:55;;;;;;;;;9.75;7.25;;;;;19.93;56.19;101003.66;4887151;29;45635;-67
2021/07/07 07:48:22;;;;;;;;;4.75;4.75;;;;;20.14;56.29;101028.41;4885302;29;45471;-67
2021/07/07 07:50:49;;;;;;;;;5.00;5.00;;;;;20.22;56.12;101035.16;4884851;29;45594;-67
2021/07/07 07:53:14;;;;;;;;;9.00;6.00;;;;;20.25;55.80;101030.38;4891652;29;45572;-68
2021/07/07 07:55:41;;;;;;;;;6.50;4.50;;;;;20.07;55.50;100996.41;4875276;29;45417;-68
2021/07/07 07:58:06;;;;;;;;;5.00;5.00;;;;;20.28;55.07;101030.19;4884815;29;45342;-68
2021/07/07 08:00:32;;;;;;;;;6.25;6.25;;;;;20.32;55.70;101034.41;4884967;29;45306;-67
2021/07/07 08:02:57;;;;;;;;;3.00;3.00;;;;;20.50;54.76;101062.09;4882196;29;46129;-68
2021/07/07 08:05:23;;;;;;;;;4.00;4.00;;;;;20.55;55.02;101054.50;4867896;29;45819;-68
2021/07/07 08:07:48;;;;;;;;;5.25;5.25;;;;;20.57;55.36;101038.13;4886440;29;45384;-67
2021/07/07 08:10:19;;;;;;;;;4.00;3.50;;;;;20.67;55.02;101050.09;4886921;29;45610;-66
2021/07/07 08:12:45;;;;;;;;;5.00;4.00;;;;;20.65;54.49;101049.34;4885202;29;47811;-65
2021/07/07 08:15:10;;;;;;;;;6.00;4.50;;;;;20.66;54.43;101037.50;4876760;29;45533;-64
2021/07/07 08:17:36;;;;;;;;;6.25;6.25;;;;;20.72;54.04;101049.78;4884522;29;45533;-64
2021/07/07 08:20:05;;;;;;;;;7.25;6.00;;;;;20.78;54.24;101057.50;4893055;29;45447;-68
2021/07/07 08:22:30;;;;;;;;;5.50;4.50;;;;;20.85;53.98;101068.78;4890133;29;45460;-65
2021/07/07 08:24:56;;;;;;;;;4.00;4.00;;;;;20.88;53.85;101069.44;4899565;29;45351;-65
2021/07/07 08:27:21;;;;;;;;;6.00;5.00;;;;;20.86;53.67;101057.81;4884391;29;45467;-64
2021/07/07 08:29:46;;;;;;;;;6.75;5.00;;;;;20.92;54.03;101064.66;4884672;29;45381;-64
2021/07/07 08:32:12;;;;;;;;;5.25;4.50;;;;;20.90;53.76;101050.34;4896421;29;45466;-65
2021/07/07 08:34:37;;;;;;;;;7.25;6.00;;;;;21.02;53.53;101064.88;4882606;29;45987;-64
2021/07/07 08:37:03;;;;;;;;;3.25;3.25;;;;;20.99;53.55;101054.25;4884144;29;45543;-64
2021/07/07 08:39:30;;;;;;;;;5.50;5.00;;;;;21.12;53.80;101073.22;4884433;29;45441;-64
2021/07/07 08:41:56;;;;;;;;;1.00;1.00;;;;;21.09;53.31;101064.31;4892592;28;46302;-64
2021/07/07 08:44:22;;;;;;;;;6.00;5.00;;;;;21.09;53.13;101064.31;4867530;29;45597;-63
2021/07/07 08:46:48;;;;;;;;;4.25;4.25;;;;;21.23;53.04;101092.31;4885861;29;45454;-65
2021/07/07 08:49:15;;;;;;;;;6.00;5.00;;;;;21.24;53.13;101089.50;4867527;29;45345;-64
2021/07/07 08:51:41;;;;;;;;;4.50;4.50;;;;;21.25;52.92;101077.66;4867209;29;48412;-64
2021/07/07 08:54:11;;;;;;;;;4.25;4.25;;;;;21.27;53.50;101083.00;4883994;29;45489;-65
2021/07/07 08:56:40;;;;;;;;;6.75;4.00;;;;;21.29;53.40;101084.59;4884406;29;45459;-64
2021/07/07 08:59:06;;;;;;;;;4.50;4.50;;;;;21.32;52.85;101088.94;4896237;29;45492;-64
2021/07/07 09:01:58;;;;;;;;;3.25;3.25;;;;;21.35;52.50;101087.84;4884087;29;45485;-64
2021/07/07 09:04:33;;;;;;;;;4.00;4.00;;;;;21.34;52.97;101084.28;4882624;29;45341;-64
2021/07/07 09:07:00;;;;;;;;;7.00;5.75;;;;;21.32;52.97;101080.81;4883873;29;45247;-63
2021/07/07 09:09:39;;;;;;;;;7.50;6.50;;;;;21.37;53.26;101086.78;4898202;29;45378;-64
2021/07/07 09:12:15;;;;;;;;;6.50;5.00;;;;;21.42;53.16;101100.03;4892116;29;45519;-64
2021/07/07 09:14:43;;;;;;;;;8.00;7.00;;;;;21.45;53.08;101088.91;4882958;29;45644;-63
2021/07/07 09:17:14;;;;;;;;;5.00;5.00;;;;;21.45;53.30;101095.22;4882638;29;45557;-65
2021/07/07 09:19:41;;;;;;;;;6.50;6.00;;;;;21.49;53.24;101095.03;4896175;29;45569;-64
2021/07/07 09:22:09;;;;;;;;;7.00;5.00;;;;;21.43;53.35;101091.75;4883784;29;46008;-65
2021/07/07 09:24:36;;;;;;;;;6.75;6.75;;;;;21.45;52.51;101091.63;4883644;29;45467;-65
2021/07/07 09:27:07;;;;;;;;;6.25;4.75;;;;;21.41;53.01;101085.56;4888594;29;45481;-65
2021/07/07 09:29:37;;;;;;;;;5.00;5.00;;;;;21.51;53.29;101101.22;4883702;29;45486;-65
2021/07/07 09:32:23;;;;;;;;;8.00;7.00;;;;;21.53;53.15;101107.41;4883445;29;45378;-65
2021/07/07 09:34:52;;;;;;;;;6.25;6.25;;;;;21.48;52.62;101099.59;4883214;29;45387;-65
2021/07/07 09:37:25;;;;;;;;;6.75;6.75;;;;;21.47;52.60;101089.72;4883634;29;45436;-65
2021/07/07 09:39:51;;;;;;;;;8.00;6.75;;;;;21.54;53.11;101110.00;4883734;29;45504;-65
2021/07/07 09:42:29;;;;;;;;;8.00;6.00;;;;;21.45;52.83;101089.81;4891955;28;45452;-65
2021/07/07 09:44:58;;;;;;;;;5.00;5.00;;;;;21.55;52.72;101121.75;4873779;29;45758;-65
2021/07/07 09:47:24;;;;;;;;;5.75;5.00;;;;;21.47;53.07;101103.31;4883357;29;45405;-66
2021/07/07 09:49:50;;;;;;;;;7.00;6.00;;;;;21.37;53.18;101085.91;4883444;29;45470;-65
2021/07/07 09:52:19;;;;;;;;;5.50;5.50;;;;;21.49;53.52;101098.63;4892906;29;45609;-65
2021/07/07 09:54:46;;;;;;;;;7.25;6.25;;;;;21.63;53.65;101113.91;4885513;29;45369;-65
2021/07/07 09:57:12;;;;;;;;;7.75;6.25;;;;;21.67;53.97;101109.09;4888834;29;45499;-65
2021/07/07 09:59:37;;;;;;;;;5.75;5.75;;;;;21.71;53.84;101105.19;4889152;29;45503;-65
2021/07/07 10:02:03;;;;;;;;;6.25;5.50;;;;;21.77;53.85;101113.75;4902149;29;45457;-65
2021/07/07 10:04:32;;;;;;;;;7.00;5.00;;;;;21.73;53.54;101095.06;4884769;29;45517;-65
2021/07/07 10:06:59;;;;;;;;;6.75;6.75;;;;;21.87;53.70;101121.22;4893670;29;45376;-66
2021/07/07 10:09:26;;;;;;;;;6.50;6.50;;;;;21.90;53.71;101116.44;4899409;29;45341;-66
2021/07/07 10:11:54;;;;;;;;;11.25;7.75;;;;;21.94;53.55;101117.94;4875756;29;46215;-65
2021/07/07 10:14:21;;;;;;;;;7.25;7.25;;;;;21.96;54.06;101112.41;4882449;29;45444;-66
2021/07/07 10:16:48;;;;;;;;;6.50;6.25;;;;;21.94;53.16;101106.22;4886202;29;45458;-65
2021/07/07 10:19:14;;;;;;;;;6.75;5.00;;;;;22.00;52.97;101120.22;4886229;29;45462;-65
2021/07/07 10:21:39;;;;;;;;;6.25;6.25;;;;;21.77;52.22;101081.16;4896345;29;46024;-66
2021/07/07 10:24:05;;;;;;;;;9.00;9.00;;;;;22.01;52.91;101115.63;4888493;29;45441;-65
2021/07/07 10:26:32;;;;;;;;;5.50;5.25;;;;;21.94;52.53;101107.06;4890766;29;45471;-65
2021/07/07 10:28:58;;;;;;;;;6.00;6.00;;;;;22.00;52.94;101111.16;4859870;29;45533;-65
2021/07/07 10:31:48;;;;;;;;;6.75;6.00;;;;;22.05;52.76;101113.56;4898678;29;46231;-65
2021/07/07 10:34:16;;;;;;;;;4.75;4.75;;;;;21.99;52.64;101104.03;4896423;29;45500;-66
2021/07/07 10:36:42;;;;;;;;;6.25;5.75;;;;;21.95;52.28;101092.50;4884907;29;45505;-66
2021/07/07 10:39:09;;;;;;;;;7.25;6.75;;;;;22.03;52.59;101100.06;4885920;29;45800;-65
2021/07/07 10:41:41;;;;;;;;;7.00;6.00;;;;;22.09;52.71;101105.06;4889912;29;46184;-65
2021/07/07 10:44:06;;;;;;;;;9.75;7.50;;;;;22.13;52.70;101108.41;4885664;29;45661;-66
2021/07/07 10:46:59;;;;;;;;;5.75;5.75;;;;;22.13;52.66;101103.81;4902394;29;45755;-65
2021/07/07 10:49:38;;;;;;;;;6.75;6.25;;;;;22.15;52.58;101099.16;4872293;29;45985;-66
2021/07/07 10:52:05;;;;;;;;;8.00;6.25;;;;;22.15;52.85;101096.44;4886504;29;46340;-65
2021/07/07 10:54:33;;;;;;;;;8.00;5.75;;;;;22.15;52.83;101084.69;4887942;29;45330;-66
2021/07/07 10:57:02;;;;;;;;;7.00;7.00;;;;;22.21;51.87;101103.25;4905316;29;45459;-66
2021/07/07 10:59:39;;;;;;;;;7.75;6.50;;;;;22.26;52.14;101094.75;4888443;29;45782;-66
2021/07/07 11:02:06;;;;;;;;;6.50;6.50;;;;;22.30;52.39;101096.28;4889448;29;46190;-66
2021/07/07 11:04:37;;;;;;;;;7.50;7.00;;;;;22.35;52.42;101107.66;4899412;29;45471;-66
2021/07/07 11:07:27;;;;;;;;;7.00;7.00;;;;;22.39;52.32;101104.59;4887206;29;45423;-65
2021/07/07 11:09:54;;;;;;;;;9.00;7.75;;;;;22.43;52.00;101102.50;4879149;29;45632;-66
2021/07/07 11:12:40;;;;;;;;;5.00;5.00;;;;;22.43;51.46;101101.66;4888918;29;46346;-65
2021/07/07 11:15:07;;;;;;;;;8.00;6.75;;;;;22.38;51.73;101111.03;4873851;29;45663;-66
2021/07/07 11:17:34;;;;;;;;;4.00;4.00;;;;;22.39;51.17;101103.75;4886225;29;45382;-66
2021/07/07 11:20:15;;;;;;;;;5.25;5.00;;;;;22.35;51.18;101097.69;4885932;29;45455;-66
2021/07/07 11:22:44;;;;;;;;;5.75;5.75;;;;;22.37;51.07;101120.19;4885492;29;45320;-66
2021/07/07 11:25:12;;;;;;;;;5.50;5.50;;;;;22.36;51.16;101120.28;4897284;29;45527;-66
2021/07/07 11:27:38;;;;;;;;;6.25;5.50;;;;;22.27;51.05;101112.78;4904793;29;45375;-66